Time;durP1;ratioP1;P1;durP2;ratioP2;P2;SDS_P1;SDS_P2;PMS_P1;PMS_P2;Temp;Humidity;BMP_temperature;BMP_pressure;BME280_temperature;BME280_humidity;BME280_pressure;Samples;Min_cycle;Max_cycle;Signal;HPM_P1;HPM_P2
2020/12/18 00:01:47;;;;;;;26.13;15.07;;;;;;;;;;5089905;28;20024;-63
2020/12/18 00:04:13;;;;;;;26.70;14.93;;;;;;;;;;5075508;28;20052;-63
2020/12/18 00:06:39;;;;;;;26.58;15.15;;;;;;;;;;5085539;28;20051;-63
2020/12/18 00:09:06;;;;;;;22.30;13.75;;;;;;;;;;5083601;28;20391;-63
2020/12/18 00:11:32;;;;;;;27.75;15.93;;;;;;;;;;5088782;28;20031;-63
2020/12/18 00:13:58;;;;;;;29.92;15.77;;;;;;;;;;5068237;28;20418;-63
2020/12/18 00:16:26;;;;;;;31.20;15.52;;;;;;;;;;5088106;28;20082;-63
2020/12/18 00:18:52;;;;;;;25.15;15.45;;;;;;;;;;5077947;28;20035;-63
2020/12/18 00:21:18;;;;;;;26.60;15.07;;;;;;;;;;5070314;28;20021;-63
2020/12/18 00:23:44;;;;;;;28.58;15.57;;;;;;;;;;5075691;28;20178;-64
2020/12/18 00:26:10;;;;;;;29.75;15.48;;;;;;;;;;5076128;28;20534;-64
2020/12/18 00:28:36;;;;;;;24.65;14.60;;;;;;;;;;5060699;28;20033;-64
2020/12/18 00:31:02;;;;;;;32.28;15.63;;;;;;;;;;5088238;28;20033;-64
2020/12/18 00:33:28;;;;;;;27.65;14.68;;;;;;;;;;5074798;28;20029;-64
2020/12/18 00:35:54;;;;;;;27.65;15.65;;;;;;;;;;5080286;28;20055;-64
2020/12/18 00:38:20;;;;;;;26.98;16.13;;;;;;;;;;5071599;28;20113;-64
2020/12/18 00:40:46;;;;;;;26.80;15.05;;;;;;;;;;5083162;28;20097;-64
2020/12/18 00:43:12;;;;;;;26.27;14.27;;;;;;;;;;5086610;28;20024;-64
2020/12/18 00:45:38;;;;;;;26.35;14.23;;;;;;;;;;5080199;28;20029;-63
2020/12/18 00:48:04;;;;;;;24.58;13.57;;;;;;;;;;5068553;28;20021;-64
2020/12/18 00:50:30;;;;;;;25.73;14.55;;;;;;;;;;5064855;28;20447;-64
2020/12/18 00:52:57;;;;;;;27.35;15.63;;;;;;;;;;5073770;28;20038;-64
2020/12/18 00:55:23;;;;;;;31.35;15.82;;;;;;;;;;5059165;28;20024;-64
2020/12/18 00:57:49;;;;;;;22.77;14.10;;;;;;;;;;5066612;28;20036;-64
2020/12/18 01:00:16;;;;;;;23.70;13.85;;;;;;;;;;5075216;28;20028;-64
2020/12/18 01:02:42;;;;;;;27.50;14.80;;;;;;;;;;5069121;28;20174;-64
2020/12/18 01:05:08;;;;;;;31.33;16.00;;;;;;;;;;5080974;28;20032;-63
2020/12/18 01:07:34;;;;;;;29.48;15.63;;;;;;;;;;5074136;28;20050;-64
2020/12/18 01:10:00;;;;;;;26.80;14.70;;;;;;;;;;5085393;28;20035;-64
2020/12/18 01:12:26;;;;;;;27.25;15.07;;;;;;;;;;5087078;28;20016;-64
2020/12/18 01:14:52;;;;;;;28.25;15.85;;;;;;;;;;5074272;28;20024;-64
2020/12/18 01:17:18;;;;;;;27.08;14.88;;;;;;;;;;5081138;28;20028;-64
2020/12/18 01:19:44;;;;;;;27.48;13.50;;;;;;;;;;5079820;28;20119;-64
2020/12/18 01:22:10;;;;;;;25.77;15.05;;;;;;;;;;5067128;28;20020;-63
2020/12/18 01:24:35;;;;;;;26.15;14.77;;;;;;;;;;5073148;28;20033;-64
2020/12/18 01:27:01;;;;;;;28.63;16.67;;;;;;;;;;5082063;28;20028;-64
2020/12/18 01:29:27;;;;;;;30.48;15.00;;;;;;;;;;5074803;28;20032;-64
2020/12/18 01:31:53;;;;;;;30.63;15.82;;;;;;;;;;5074134;28;20017;-64
2020/12/18 01:34:19;;;;;;;24.88;15.15;;;;;;;;;;5068869;28;20020;-64
2020/12/18 01:36:45;;;;;;;27.73;15.15;;;;;;;;;;5078661;28;20756;-63
2020/12/18 01:39:11;;;;;;;24.20;13.40;;;;;;;;;;5074518;28;20529;-63
2020/12/18 01:41:37;;;;;;;29.40;15.25;;;;;;;;;;5069853;28;20467;-64
2020/12/18 01:44:03;;;;;;;27.80;15.10;;;;;;;;;;5084962;28;20036;-64
2020/12/18 01:46:30;;;;;;;25.13;14.23;;;;;;;;;;5070845;28;20479;-64
2020/12/18 01:48:56;;;;;;;24.95;14.88;;;;;;;;;;5068758;28;20028;-64
2020/12/18 01:51:23;;;;;;;26.17;14.70;;;;;;;;;;5080158;28;20036;-64
2020/12/18 01:53:49;;;;;;;25.40;13.93;;;;;;;;;;5070022;28;20031;-64
2020/12/18 01:56:15;;;;;;;26.98;14.90;;;;;;;;;;5081581;28;20028;-64
2020/12/18 01:58:41;;;;;;;23.92;13.43;;;;;;;;;;5071676;28;20028;-64
2020/12/18 02:01:08;;;;;;;25.90;15.10;;;;;;;;;;5067141;28;20521;-63
2020/12/18 02:03:35;;;;;;;24.77;13.77;;;;;;;;;;5073306;28;20047;-63
2020/12/18 02:06:04;;;;;;;26.33;14.55;;;;;;;;;;5087964;28;20028;-64
2020/12/18 02:08:30;;;;;;;28.52;14.68;;;;;;;;;;5082242;28;20055;-63
2020/12/18 02:10:57;;;;;;;25.02;13.60;;;;;;;;;;5072222;28;20037;-64
2020/12/18 02:13:23;;;;;;;23.23;12.70;;;;;;;;;;5073821;28;20741;-63
2020/12/18 02:15:50;;;;;;;24.25;13.57;;;;;;;;;;5082060;28;20105;-63
2020/12/18 02:18:16;;;;;;;24.13;13.48;;;;;;;;;;5079462;28;20031;-63
2020/12/18 02:20:42;;;;;;;22.83;13.65;;;;;;;;;;5087342;28;20161;-63
2020/12/18 02:23:08;;;;;;;27.30;14.40;;;;;;;;;;5079737;28;20016;-64
2020/12/18 02:25:38;;;;;;;27.60;14.43;;;;;;;;;;5082222;28;20020;-63
2020/12/18 02:28:04;;;;;;;22.50;13.00;;;;;;;;;;5085703;28;20028;-63
2020/12/18 02:30:30;;;;;;;24.67;14.70;;;;;;;;;;5071384;28;20451;-63
2020/12/18 02:32:56;;;;;;;26.92;14.48;;;;;;;;;;5081881;28;20028;-63
2020/12/18 02:35:22;;;;;;;30.90;15.70;;;;;;;;;;5070431;28;20055;-63
2020/12/18 02:37:47;;;;;;;26.42;14.48;;;;;;;;;;5072782;28;20036;-63
2020/12/18 02:40:13;;;;;;;29.60;15.57;;;;;;;;;;5082670;28;20058;-63
2020/12/18 02:42:39;;;;;;;26.27;16.23;;;;;;;;;;5086605;28;20039;-63
2020/12/18 02:45:05;;;;;;;24.50;14.48;;;;;;;;;;5063286;28;20025;-63
2020/12/18 02:47:31;;;;;;;25.55;14.85;;;;;;;;;;5066657;28;20028;-64
2020/12/18 02:49:57;;;;;;;30.00;15.40;;;;;;;;;;5083223;28;20032;-63
2020/12/18 02:52:23;;;;;;;29.38;15.65;;;;;;;;;;5074823;28;20024;-63
2020/12/18 02:54:49;;;;;;;26.25;13.50;;;;;;;;;;5064617;28;20127;-63
2020/12/18 02:57:15;;;;;;;28.52;15.02;;;;;;;;;;5086531;28;20024;-63
2020/12/18 02:59:41;;;;;;;28.90;16.13;;;;;;;;;;5073498;28;20028;-63
2020/12/18 03:02:07;;;;;;;25.00;14.55;;;;;;;;;;5075661;28;20427;-64
2020/12/18 03:04:33;;;;;;;25.48;14.55;;;;;;;;;;5077882;28;20613;-63
2020/12/18 03:06:59;;;;;;;29.88;15.57;;;;;;;;;;5080510;28;20377;-63
2020/12/18 03:09:25;;;;;;;24.65;14.57;;;;;;;;;;5082125;28;20383;-63
2020/12/18 03:11:51;;;;;;;24.73;14.52;;;;;;;;;;5085346;28;20596;-64
2020/12/18 03:14:16;;;;;;;32.92;16.35;;;;;;;;;;5067863;28;20349;-63
2020/12/18 03:16:42;;;;;;;25.65;15.27;;;;;;;;;;5086722;28;20066;-63
2020/12/18 03:19:08;;;;;;;24.70;14.82;;;;;;;;;;5085415;28;20089;-63
2020/12/18 03:21:34;;;;;;;29.92;14.80;;;;;;;;;;5077979;28;20028;-63
2020/12/18 03:24:00;;;;;;;31.50;15.80;;;;;;;;;;5071521;28;20086;-64
2020/12/18 03:26:26;;;;;;;24.40;14.20;;;;;;;;;;5077139;28;20467;-63
2020/12/18 03:28:52;;;;;;;31.13;15.90;;;;;;;;;;5076606;28;20093;-63
2020/12/18 03:31:19;;;;;;;25.70;14.88;;;;;;;;;;5090644;28;20020;-63
2020/12/18 03:33:45;;;;;;;24.33;15.05;;;;;;;;;;5083232;28;20032;-63
2020/12/18 03:36:11;;;;;;;31.05;15.88;;;;;;;;;;5080543;28;20104;-63
2020/12/18 03:38:37;;;;;;;29.15;14.05;;;;;;;;;;5073554;28;20495;-63
2020/12/18 03:41:06;;;;;;;26.83;15.57;;;;;;;;;;5050101;28;20075;-63
2020/12/18 03:43:32;;;;;;;30.52;16.85;;;;;;;;;;5081035;28;20057;-63
2020/12/18 03:45:58;;;;;;;27.25;15.20;;;;;;;;;;5084924;28;20411;-63
2020/12/18 03:48:24;;;;;;;28.27;15.50;;;;;;;;;;5074930;28;20020;-63
2020/12/18 03:50:50;;;;;;;29.52;14.15;;;;;;;;;;5086120;28;20522;-63
2020/12/18 03:53:16;;;;;;;28.15;16.48;;;;;;;;;;5087356;28;20024;-63
2020/12/18 03:55:42;;;;;;;27.83;14.82;;;;;;;;;;5090320;28;20023;-63
2020/12/18 03:58:09;;;;;;;35.30;17.00;;;;;;;;;;5088613;28;20027;-63
2020/12/18 04:00:36;;;;;;;31.60;16.25;;;;;;;;;;5069431;28;20024;-63
2020/12/18 04:03:01;;;;;;;28.20;14.85;;;;;;;;;;5078675;28;20051;-63
2020/12/18 04:05:27;;;;;;;32.38;17.13;;;;;;;;;;5090494;28;20024;-63
2020/12/18 04:07:53;;;;;;;26.98;15.57;;;;;;;;;;5089625;28;20034;-63
2020/12/18 04:10:19;;;;;;;28.90;15.55;;;;;;;;;;5089812;28;20039;-63
2020/12/18 04:12:45;;;;;;;26.20;15.75;;;;;;;;;;5085523;28;20024;-63
2020/12/18 04:15:11;;;;;;;26.20;15.50;;;;;;;;;;5069363;28;20029;-63
2020/12/18 04:17:37;;;;;;;26.17;15.82;;;;;;;;;;5082628;28;20029;-63
2020/12/18 04:20:03;;;;;;;31.70;15.43;;;;;;;;;;5070974;28;20028;-63
2020/12/18 04:22:29;;;;;;;30.30;16.10;;;;;;;;;;5071116;28;20028;-63
2020/12/18 04:24:55;;;;;;;29.52;16.30;;;;;;;;;;5082123;28;20062;-63
2020/12/18 04:27:21;;;;;;;28.15;16.50;;;;;;;;;;5089184;28;20044;-63
2020/12/18 04:29:47;;;;;;;25.98;15.73;;;;;;;;;;5079970;28;20024;-63
2020/12/18 04:32:13;;;;;;;27.98;16.05;;;;;;;;;;5088172;28;20020;-63
2020/12/18 04:34:39;;;;;;;30.75;16.42;;;;;;;;;;5073372;28;20159;-63
2020/12/18 04:37:05;;;;;;;32.50;17.38;;;;;;;;;;5083607;28;20717;-63
2020/12/18 04:39:31;;;;;;;26.85;15.07;;;;;;;;;;5069866;28;20150;-63
2020/12/18 04:41:57;;;;;;;25.77;15.18;;;;;;;;;;5083784;28;20046;-63
2020/12/18 04:44:24;;;;;;;24.60;14.63;;;;;;;;;;5089645;28;20024;-63
2020/12/18 04:46:50;;;;;;;29.00;15.43;;;;;;;;;;5076322;28;20043;-63
2020/12/18 04:49:17;;;;;;;29.38;15.50;;;;;;;;;;5071202;28;20024;-63
2020/12/18 04:51:44;;;;;;;24.60;14.35;;;;;;;;;;5085544;28;20106;-63
2020/12/18 04:54:11;;;;;;;24.77;14.52;;;;;;;;;;5072211;28;20044;-63
2020/12/18 04:56:40;;;;;;;25.92;15.10;;;;;;;;;;5082644;28;20040;-63
2020/12/18 04:59:06;;;;;;;27.85;14.70;;;;;;;;;;5083536;28;20380;-63
2020/12/18 05:01:32;;;;;;;26.27;14.95;;;;;;;;;;5072391;28;20024;-63
2020/12/18 05:03:59;;;;;;;25.08;14.77;;;;;;;;;;5079725;28;20602;-63
2020/12/18 05:06:24;;;;;;;22.10;13.68;;;;;;;;;;5086211;28;20027;-63
2020/12/18 05:08:50;;;;;;;28.90;15.57;;;;;;;;;;5059749;28;20037;-63
2020/12/18 05:11:27;;;;;;;25.15;15.05;;;;;;;;;;5067368;28;20059;-63
2020/12/18 05:13:53;;;;;;;24.17;15.05;;;;;;;;;;5080888;28;20079;-63
2020/12/18 05:16:22;;;;;;;25.42;14.07;;;;;;;;;;5085129;28;20032;-63
2020/12/18 05:18:49;;;;;;;24.92;14.63;;;;;;;;;;5068300;28;20033;-63
2020/12/18 05:21:15;;;;;;;25.70;13.20;;;;;;;;;;5075874;28;20086;-63
2020/12/18 05:23:41;;;;;;;24.10;13.35;;;;;;;;;;5063293;28;20480;-63
2020/12/18 05:26:08;;;;;;;26.30;13.57;;;;;;;;;;5073145;28;20040;-63
2020/12/18 05:28:40;;;;;;;28.17;15.23;;;;;;;;;;5084261;28;20492;-63
2020/12/18 05:31:10;;;;;;;28.48;14.75;;;;;;;;;;5082256;28;20063;-63
2020/12/18 05:33:36;;;;;;;25.02;15.15;;;;;;;;;;5068502;28;20166;-63
2020/12/18 05:36:03;;;;;;;24.45;14.73;;;;;;;;;;5075558;28;20028;-63
2020/12/18 05:38:29;;;;;;;27.60;14.63;;;;;;;;;;5070372;28;20392;-63
2020/12/18 05:40:58;;;;;;;26.00;13.90;;;;;;;;;;5059057;28;20024;-63
2020/12/18 05:43:24;;;;;;;28.45;14.50;;;;;;;;;;5070828;28;20360;-63
2020/12/18 05:45:50;;;;;;;26.17;14.50;;;;;;;;;;5086878;28;20016;-63
2020/12/18 05:48:16;;;;;;;30.55;14.90;;;;;;;;;;5059149;28;20025;-63
2020/12/18 05:50:42;;;;;;;27.63;15.38;;;;;;;;;;5061892;28;20118;-63
2020/12/18 05:53:08;;;;;;;27.70;16.00;;;;;;;;;;5070133;28;20120;-63
2020/12/18 05:55:35;;;;;;;26.38;14.85;;;;;;;;;;5079168;28;20101;-63
2020/12/18 05:58:01;;;;;;;25.83;14.40;;;;;;;;;;5075015;28;20043;-63
2020/12/18 06:00:27;;;;;;;24.23;14.63;;;;;;;;;;5070275;28;20036;-63
2020/12/18 06:02:57;;;;;;;26.92;14.48;;;;;;;;;;5073319;28;20093;-63
2020/12/18 06:05:24;;;;;;;25.17;14.05;;;;;;;;;;5065524;28;20127;-63
2020/12/18 06:07:51;;;;;;;30.55;15.45;;;;;;;;;;5073520;28;20039;-63
2020/12/18 06:10:20;;;;;;;21.75;13.20;;;;;;;;;;5076963;28;20466;-64
2020/12/18 06:12:47;;;;;;;23.77;13.75;;;;;;;;;;5083685;28;20126;-63
2020/12/18 06:15:13;;;;;;;22.77;13.25;;;;;;;;;;5073747;28;20032;-64
2020/12/18 06:17:43;;;;;;;23.73;14.70;;;;;;;;;;5065216;28;20029;-64
2020/12/18 06:20:13;;;;;;;30.33;14.77;;;;;;;;;;5086879;28;20021;-63
2020/12/18 06:22:39;;;;;;;26.58;14.02;;;;;;;;;;5077441;28;20028;-64
2020/12/18 06:25:05;;;;;;;24.48;14.27;;;;;;;;;;5082720;28;20359;-64
2020/12/18 06:27:31;;;;;;;31.15;15.55;;;;;;;;;;5076355;28;20578;-64
2020/12/18 06:30:09;;;;;;;29.02;14.90;;;;;;;;;;5066626;28;20028;-63
2020/12/18 06:32:35;;;;;;;26.08;14.77;;;;;;;;;;5070001;28;20750;-64
2020/12/18 06:35:25;;;;;;;27.35;15.15;;;;;;;;;;5080289;28;20027;-64
2020/12/18 06:37:51;;;;;;;26.92;14.73;;;;;;;;;;5067288;28;20620;-63
2020/12/18 06:40:32;;;;;;;27.83;14.95;;;;;;;;;;5085218;28;20032;-63
2020/12/18 06:42:58;;;;;;;31.10;15.27;;;;;;;;;;5087625;28;20024;-64
2020/12/18 06:45:26;;;;;;;24.98;15.05;;;;;;;;;;5075770;28;20025;-63
2020/12/18 06:47:52;;;;;;;23.58;13.85;;;;;;;;;;5078058;28;20384;-63
2020/12/18 06:50:18;;;;;;;28.65;14.18;;;;;;;;;;5070668;28;20043;-64
2020/12/18 06:52:46;;;;;;;26.13;14.32;;;;;;;;;;5070219;28;20453;-63
2020/12/18 06:55:35;;;;;;;27.00;14.48;;;;;;;;;;5077082;28;20020;-63
2020/12/18 06:58:07;;;;;;;24.48;13.80;;;;;;;;;;5040863;28;20029;-63
2020/12/18 07:00:44;;;;;;;28.05;14.85;;;;;;;;;;5072338;28;20826;-63
2020/12/18 07:03:10;;;;;;;30.13;16.00;;;;;;;;;;5076506;28;20032;-64
2020/12/18 07:05:43;;;;;;;26.23;15.45;;;;;;;;;;5082079;28;20471;-63
2020/12/18 07:08:15;;;;;;;31.65;16.50;;;;;;;;;;5068948;28;20056;-63
2020/12/18 07:10:45;;;;;;;34.55;17.60;;;;;;;;;;5058861;28;20028;-63
2020/12/18 07:13:15;;;;;;;28.52;15.57;;;;;;;;;;5071447;28;20693;-63
2020/12/18 07:15:44;;;;;;;29.02;15.43;;;;;;;;;;5068341;28;20029;-64
2020/12/18 07:18:19;;;;;;;35.88;17.88;;;;;;;;;;5073789;28;20048;-63
2020/12/18 07:21:14;;;;;;;34.67;16.90;;;;;;;;;;5070722;28;20541;-63
2020/12/18 07:23:41;;;;;;;29.58;14.95;;;;;;;;;;5043559;28;20160;-63
2020/12/18 07:26:08;;;;;;;29.83;15.88;;;;;;;;;;5070005;28;20031;-63
2020/12/18 07:28:39;;;;;;;29.20;16.55;;;;;;;;;;5081021;28;20115;-64
2020/12/18 07:31:06;;;;;;;30.38;15.00;;;;;;;;;;5065749;28;20116;-63
2020/12/18 07:33:32;;;;;;;29.77;16.95;;;;;;;;;;5065608;28;20028;-64
2020/12/18 07:35:59;;;;;;;33.67;16.92;;;;;;;;;;5073120;28;20487;-63
2020/12/18 07:38:27;;;;;;;26.15;15.80;;;;;;;;;;5074100;28;20040;-64
2020/12/18 07:40:53;;;;;;;27.63;16.05;;;;;;;;;;5066507;28;20021;-63
2020/12/18 07:43:22;;;;;;;31.95;16.90;;;;;;;;;;5062002;28;20029;-63
2020/12/18 07:45:49;;;;;;;31.23;16.10;;;;;;;;;;5071558;28;20028;-64
2020/12/18 07:48:16;;;;;;;39.05;18.48;;;;;;;;;;5050716;28;20083;-63
2020/12/18 07:50:53;;;;;;;38.00;18.23;;;;;;;;;;5086685;28;20039;-63
2020/12/18 07:53:20;;;;;;;38.70;19.67;;;;;;;;;;5062666;28;20028;-63
2020/12/18 07:55:57;;;;;;;34.55;19.52;;;;;;;;;;5077583;28;20036;-63
2020/12/18 07:58:23;;;;;;;40.10;18.75;;;;;;;;;;5070917;28;20107;-64
2020/12/18 08:00:49;;;;;;;33.75;18.33;;;;;;;;;;5065807;28;20039;-63
2020/12/18 08:03:15;;;;;;;38.78;19.83;;;;;;;;;;5065844;28;20049;-63
2020/12/18 08:05:44;;;;;;;38.85;20.83;;;;;;;;;;5075802;28;20038;-63
2020/12/18 08:08:10;;;;;;;36.50;19.65;;;;;;;;;;5085461;28;20028;-63
2020/12/18 08:10:40;;;;;;;35.45;18.65;;;;;;;;;;5069903;28;20342;-63
2020/12/18 08:13:06;;;;;;;41.72;21.10;;;;;;;;;;5068939;28;20503;-64
2020/12/18 08:15:33;;;;;;;39.13;21.50;;;;;;;;;;5074308;28;20028;-63
2020/12/18 08:17:59;;;;;;;38.42;18.67;;;;;;;;;;5067645;28;20391;-63
2020/12/18 08:20:25;;;;;;;32.35;18.17;;;;;;;;;;5074924;28;20032;-63
2020/12/18 08:22:52;;;;;;;32.08;18.13;;;;;;;;;;5063052;28;20016;-63
2020/12/18 08:25:19;;;;;;;33.42;17.67;;;;;;;;;;5072722;28;20063;-63
2020/12/18 08:27:48;;;;;;;43.10;24.48;;;;;;;;;;5069606;28;20081;-63
2020/12/18 08:30:16;;;;;;;36.50;20.20;;;;;;;;;;5069686;28;20086;-63
2020/12/18 08:32:47;;;;;;;40.67;21.15;;;;;;;;;;5080296;28;20035;-63
2020/12/18 08:35:18;;;;;;;39.78;20.50;;;;;;;;;;5078996;28;20471;-63
2020/12/18 08:37:43;;;;;;;28.88;18.33;;;;;;;;;;5071979;28;20414;-63
2020/12/18 08:40:20;;;;;;;34.45;18.65;;;;;;;;;;5087123;28;20086;-63
2020/12/18 08:42:57;;;;;;;39.47;20.17;;;;;;;;;;5062174;28;20103;-64
2020/12/18 08:45:23;;;;;;;31.58;18.00;;;;;;;;;;5066303;28;20078;-63
2020/12/18 08:47:51;;;;;;;40.95;19.17;;;;;;;;;;5084487;28;20467;-63
2020/12/18 08:50:20;;;;;;;33.22;19.42;;;;;;;;;;5080815;28;20032;-63
2020/12/18 08:52:49;;;;;;;32.47;18.92;;;;;;;;;;5080797;28;20032;-64
2020/12/18 08:55:20;;;;;;;36.72;19.42;;;;;;;;;;5072985;28;20440;-63
2020/12/18 08:57:46;;;;;;;33.60;19.60;;;;;;;;;;5073750;28;20033;-64
2020/12/18 09:00:13;;;;;;;40.20;19.00;;;;;;;;;;5080417;28;20036;-64
2020/12/18 09:02:43;;;;;;;35.67;19.30;;;;;;;;;;5069023;28;20086;-63
2020/12/18 09:05:13;;;;;;;37.28;19.83;;;;;;;;;;5059802;28;20024;-63
2020/12/18 09:07:53;;;;;;;39.13;19.83;;;;;;;;;;5082220;28;20077;-63
2020/12/18 09:10:38;;;;;;;39.78;20.50;;;;;;;;;;5079860;28;20024;-63
2020/12/18 09:13:08;;;;;;;39.03;19.65;;;;;;;;;;5081649;28;20074;-63
2020/12/18 09:15:34;;;;;;;37.97;18.58;;;;;;;;;;5082160;28;20073;-63
2020/12/18 09:18:01;;;;;;;35.78;19.35;;;;;;;;;;5077660;28;20020;-63
2020/12/18 09:20:27;;;;;;;36.47;19.50;;;;;;;;;;5078217;28;20111;-63
2020/12/18 09:23:14;;;;;;;37.92;20.30;;;;;;;;;;5071933;28;20101;-64
2020/12/18 09:25:41;;;;;;;35.90;19.88;;;;;;;;;;5070175;28;20111;-64
2020/12/18 09:28:11;;;;;;;39.10;18.98;;;;;;;;;;5085352;28;20020;-63
2020/12/18 09:30:38;;;;;;;30.90;17.60;;;;;;;;;;5069689;28;20037;-64
2020/12/18 09:33:14;;;;;;;32.00;17.42;;;;;;;;;;5079950;28;20103;-63
2020/12/18 09:35:41;;;;;;;29.55;17.00;;;;;;;;;;5074390;28;20143;-63
2020/12/18 09:38:07;;;;;;;36.78;18.38;;;;;;;;;;5069839;28;20020;-63
2020/12/18 09:40:33;;;;;;;31.10;17.95;;;;;;;;;;5073044;28;20024;-63
2020/12/18 09:42:59;;;;;;;32.00;17.35;;;;;;;;;;5074676;28;20024;-64
2020/12/18 09:45:26;;;;;;;31.60;17.17;;;;;;;;;;5064650;28;20510;-63
2020/12/18 09:47:52;;;;;;;30.52;16.02;;;;;;;;;;5084121;28;20108;-63
2020/12/18 09:50:18;;;;;;;29.45;16.20;;;;;;;;;;5083140;28;20030;-64
2020/12/18 09:52:44;;;;;;;26.85;15.32;;;;;;;;;;5057131;28;20040;-64
2020/12/18 09:55:10;;;;;;;27.15;15.65;;;;;;;;;;5069959;28;20036;-64
2020/12/18 09:57:36;;;;;;;27.70;16.60;;;;;;;;;;5062949;28;20028;-63
2020/12/18 10:00:06;;;;;;;26.98;15.75;;;;;;;;;;5071383;28;20019;-63
2020/12/18 10:02:32;;;;;;;25.88;15.43;;;;;;;;;;5071180;28;20025;-63
2020/12/18 10:04:58;;;;;;;27.90;15.13;;;;;;;;;;5069356;28;20025;-63
2020/12/18 10:07:24;;;;;;;27.98;15.27;;;;;;;;;;5066904;28;20032;-63
2020/12/18 10:09:50;;;;;;;24.50;14.90;;;;;;;;;;5073869;28;20032;-63
2020/12/18 10:12:16;;;;;;;22.23;12.70;;;;;;;;;;5064684;28;20051;-63
2020/12/18 10:14:42;;;;;;;30.00;15.55;;;;;;;;;;5071529;28;20124;-63
2020/12/18 10:17:08;;;;;;;24.25;12.73;;;;;;;;;;5074767;28;20119;-63
2020/12/18 10:19:35;;;;;;;22.88;13.18;;;;;;;;;;5062036;28;20031;-63
2020/12/18 10:22:01;;;;;;;23.27;13.00;;;;;;;;;;5071095;28;20024;-63
2020/12/18 10:24:27;;;;;;;21.23;12.15;;;;;;;;;;5086339;28;20027;-63
2020/12/18 10:26:53;;;;;;;22.70;11.55;;;;;;;;;;5070438;28;20020;-64
2020/12/18 10:29:19;;;;;;;24.90;13.18;;;;;;;;;;5071978;28;20016;-63
2020/12/18 10:31:45;;;;;;;21.05;12.15;;;;;;;;;;5075266;28;20032;-63
2020/12/18 10:34:11;;;;;;;25.85;13.30;;;;;;;;;;5063067;28;20086;-63
2020/12/18 10:36:37;;;;;;;25.67;12.82;;;;;;;;;;5063459;28;20032;-63
2020/12/18 10:39:03;;;;;;;20.48;11.27;;;;;;;;;;5063836;28;20036;-63
2020/12/18 10:41:29;;;;;;;21.33;12.90;;;;;;;;;;5077879;28;20039;-63
2020/12/18 10:43:55;;;;;;;20.48;11.15;;;;;;;;;;5079380;28;20028;-63
2020/12/18 10:46:21;;;;;;;28.45;13.77;;;;;;;;;;5056107;28;20029;-63
2020/12/18 10:48:47;;;;;;;24.98;11.25;;;;;;;;;;5065807;28;20021;-63
2020/12/18 10:51:13;;;;;;;23.77;13.48;;;;;;;;;;5072366;28;20349;-63
2020/12/18 10:53:39;;;;;;;22.05;12.02;;;;;;;;;;5072441;28;20490;-63
2020/12/18 10:56:04;;;;;;;20.20;12.02;;;;;;;;;;5066532;28;20098;-64
2020/12/18 10:58:30;;;;;;;19.88;10.38;;;;;;;;;;5067709;28;20052;-63
2020/12/18 11:00:56;;;;;;;17.08;9.80;;;;;;;;;;5067759;28;20709;-63
2020/12/18 11:03:22;;;;;;;17.20;8.70;;;;;;;;;;5065716;28;20046;-64
2020/12/18 11:05:48;;;;;;;13.35;7.65;;;;;;;;;;5066422;28;20033;-64
2020/12/18 11:08:14;;;;;;;10.63;7.20;;;;;;;;;;5075454;28;20016;-64
2020/12/18 11:10:40;;;;;;;11.27;6.32;;;;;;;;;;5066367;28;20025;-62
2020/12/18 11:13:06;;;;;;;10.25;5.63;;;;;;;;;;5067539;28;20029;-64
2020/12/18 11:15:32;;;;;;;9.75;6.10;;;;;;;;;;5071151;28;20237;-64
2020/12/18 11:17:58;;;;;;;10.98;6.25;;;;;;;;;;5081920;28;20028;-64
2020/12/18 11:20:24;;;;;;;9.90;6.18;;;;;;;;;;5061971;28;20028;-64
2020/12/18 11:22:50;;;;;;;11.70;6.00;;;;;;;;;;5064621;28;20029;-64
2020/12/18 11:25:16;;;;;;;9.38;5.75;;;;;;;;;;5061477;28;20090;-64
2020/12/18 11:27:42;;;;;;;10.02;5.05;;;;;;;;;;5065805;28;20027;-64
2020/12/18 11:30:08;;;;;;;12.93;6.07;;;;;;;;;;5055302;28;20033;-64
2020/12/18 11:32:34;;;;;;;14.60;6.32;;;;;;;;;;5064554;28;20021;-64
2020/12/18 11:35:00;;;;;;;11.43;5.57;;;;;;;;;;5063041;28;20028;-64
2020/12/18 11:37:26;;;;;;;10.27;5.63;;;;;;;;;;5062214;28;20808;-64
2020/12/18 11:39:52;;;;;;;9.95;5.32;;;;;;;;;;5061668;28;20028;-64
2020/12/18 11:42:19;;;;;;;12.05;5.20;;;;;;;;;;5067204;28;20035;-64
2020/12/18 11:44:45;;;;;;;10.80;4.82;;;;;;;;;;5067720;28;20464;-64
2020/12/18 11:47:11;;;;;;;11.05;4.78;;;;;;;;;;5074674;28;20024;-64
2020/12/18 11:49:37;;;;;;;13.82;7.10;;;;;;;;;;5066854;28;20081;-64
2020/12/18 11:52:04;;;;;;;11.27;6.72;;;;;;;;;;5082103;28;20371;-64
2020/12/18 11:54:30;;;;;;;11.10;6.75;;;;;;;;;;5071769;28;20028;-64
2020/12/18 11:56:56;;;;;;;15.82;6.30;;;;;;;;;;5082320;28;20769;-64
2020/12/18 11:59:22;;;;;;;12.70;6.28;;;;;;;;;;5076366;28;20024;-64
2020/12/18 12:01:48;;;;;;;15.70;7.30;;;;;;;;;;5067379;28;20028;-64
2020/12/18 12:04:14;;;;;;;13.70;7.22;;;;;;;;;;5077796;28;20074;-64
2020/12/18 12:06:40;;;;;;;11.27;7.05;;;;;;;;;;5082633;28;20074;-64
2020/12/18 12:09:05;;;;;;;14.63;6.90;;;;;;;;;;5075066;28;20028;-64
2020/12/18 12:11:38;;;;;;;11.25;7.15;;;;;;;;;;5073194;28;20043;-64
2020/12/18 12:14:04;;;;;;;12.27;6.50;;;;;;;;;;5073429;28;20043;-64
2020/12/18 12:16:37;;;;;;;12.18;7.28;;;;;;;;;;5058055;28;20107;-64
2020/12/18 12:19:04;;;;;;;13.20;6.85;;;;;;;;;;5067029;28;20040;-64
2020/12/18 12:21:33;;;;;;;10.48;6.07;;;;;;;;;;5063457;28;20036;-64
2020/12/18 12:23:59;;;;;;;10.75;6.10;;;;;;;;;;5081965;28;20574;-64
2020/12/18 12:26:25;;;;;;;9.93;5.60;;;;;;;;;;5082843;28;20052;-64
2020/12/18 12:28:51;;;;;;;9.80;5.30;;;;;;;;;;5070024;28;20017;-64
2020/12/18 12:31:17;;;;;;;9.88;5.38;;;;;;;;;;5079768;28;20031;-65
2020/12/18 12:33:43;;;;;;;12.13;6.20;;;;;;;;;;5086471;28;20403;-64
2020/12/18 12:36:09;;;;;;;11.30;5.82;;;;;;;;;;5072133;28;20579;-64
2020/12/18 12:38:35;;;;;;;9.90;5.82;;;;;;;;;;5070200;28;20452;-64
2020/12/18 12:41:01;;;;;;;11.30;6.50;;;;;;;;;;5059266;28;20036;-64
2020/12/18 12:43:27;;;;;;;14.57;6.05;;;;;;;;;;5069119;28;20028;-64
2020/12/18 12:45:53;;;;;;;10.93;6.45;;;;;;;;;;5065497;28;20024;-64
2020/12/18 12:48:19;;;;;;;10.05;5.80;;;;;;;;;;5077048;28;20021;-64
2020/12/18 12:50:45;;;;;;;12.38;6.65;;;;;;;;;;5070849;28;20740;-64
2020/12/18 12:53:11;;;;;;;12.00;7.05;;;;;;;;;;5067534;28;20040;-64
2020/12/18 12:55:37;;;;;;;11.50;6.50;;;;;;;;;;5067838;28;20035;-64
2020/12/18 12:58:03;;;;;;;15.10;7.45;;;;;;;;;;5070595;28;20032;-64
2020/12/18 13:00:29;;;;;;;12.52;6.97;;;;;;;;;;5064355;28;20478;-64
2020/12/18 13:02:55;;;;;;;10.90;5.75;;;;;;;;;;5070116;28;20044;-64
2020/12/18 13:05:21;;;;;;;11.23;6.38;;;;;;;;;;5078859;28;20057;-64
2020/12/18 13:07:53;;;;;;;14.77;6.85;;;;;;;;;;5070046;28;20051;-64
2020/12/18 13:10:19;;;;;;;13.50;7.10;;;;;;;;;;5061788;28;20475;-64
2020/12/18 13:12:45;;;;;;;11.77;6.22;;;;;;;;;;5073075;28;20017;-64
2020/12/18 13:15:11;;;;;;;13.80;7.25;;;;;;;;;;5065941;28;20039;-64
2020/12/18 13:17:37;;;;;;;15.60;6.97;;;;;;;;;;5071257;28;20017;-64
2020/12/18 13:20:04;;;;;;;11.88;6.40;;;;;;;;;;5066060;28;20028;-63
2020/12/18 13:22:30;;;;;;;14.23;6.93;;;;;;;;;;5071036;28;20571;-63
2020/12/18 13:24:56;;;;;;;12.88;6.60;;;;;;;;;;5072300;28;20031;-63
2020/12/18 13:27:21;;;;;;;11.82;6.60;;;;;;;;;;5067831;28;20039;-63
2020/12/18 13:29:47;;;;;;;12.52;7.15;;;;;;;;;;5071792;28;20077;-63
2020/12/18 13:32:13;;;;;;;11.18;6.78;;;;;;;;;;5066267;28;20029;-63
2020/12/18 13:34:39;;;;;;;10.77;6.30;;;;;;;;;;5067514;28;20032;-63
2020/12/18 13:37:06;;;;;;;13.88;8.13;;;;;;;;;;5080950;28;20020;-63
2020/12/18 13:39:32;;;;;;;11.73;7.20;;;;;;;;;;5078468;28;20028;-63
2020/12/18 13:41:58;;;;;;;14.45;7.18;;;;;;;;;;5063360;28;20037;-63
2020/12/18 13:44:24;;;;;;;12.77;7.03;;;;;;;;;;5072036;28;20035;-63
2020/12/18 13:46:50;;;;;;;15.77;8.30;;;;;;;;;;5066246;28;20859;-63
2020/12/18 13:49:16;;;;;;;12.23;7.15;;;;;;;;;;5069321;28;20104;-63
2020/12/18 13:51:51;;;;;;;12.35;7.22;;;;;;;;;;5063601;28;20718;-63
2020/12/18 13:54:17;;;;;;;12.65;6.88;;;;;;;;;;5069987;28;20066;-66
2020/12/18 13:56:49;;;;;;;12.15;7.57;;;;;;;;;;5069147;28;20506;-64
2020/12/18 13:59:15;;;;;;;17.13;7.90;;;;;;;;;;5068812;28;20032;-64
2020/12/18 14:01:44;;;;;;;11.85;6.85;;;;;;;;;;5069555;28;20512;-64
2020/12/18 14:04:11;;;;;;;12.80;7.75;;;;;;;;;;5066040;28;20094;-63
2020/12/18 14:06:37;;;;;;;16.92;10.10;;;;;;;;;;5066288;28;20753;-63
2020/12/18 14:09:04;;;;;;;12.55;6.88;;;;;;;;;;5073601;28;20046;-64
2020/12/18 14:11:30;;;;;;;12.10;7.15;;;;;;;;;;5067470;28;20016;-64
2020/12/18 14:13:56;;;;;;;15.90;7.43;;;;;;;;;;5067111;28;20524;-64
2020/12/18 14:16:22;;;;;;;15.52;8.07;;;;;;;;;;5057178;28;20185;-63
2020/12/18 14:18:48;;;;;;;15.95;7.30;;;;;;;;;;5066007;28;20044;-63
2020/12/18 14:21:14;;;;;;;15.40;8.30;;;;;;;;;;5075335;28;20020;-64